sensor_id;sensor_type;location;lat;lon;timestamp;temperature;humidity
53643;DHT22;39546;45.534;12.048;2023-03-30T00:02:16;15.30;81.30
53643;DHT22;39546;45.534;12.048;2023-03-30T00:08:19;15.30;80.70
53643;DHT22;39546;45.534;12.048;2023-03-30T00:14:21;15.10;81.00
53643;DHT22;39546;45.534;12.048;2023-03-30T00:20:32;15.00;81.20
53643;DHT22;39546;45.534;12.048;2023-03-30T00:26:34;15.00;81.30
53643;DHT22;39546;45.534;12.048;2023-03-30T00:32:36;15.00;81.10
53643;DHT22;39546;45.534;12.048;2023-03-30T00:38:39;15.00;81.10
53643;DHT22;39546;45.534;12.048;2023-03-30T00:51:10;14.80;81.00
53643;DHT22;39546;45.534;12.048;2023-03-30T00:57:13;14.80;80.90
53643;DHT22;39546;45.534;12.048;2023-03-30T01:03:23;14.70;80.90
53643;DHT22;39546;45.534;12.048;2023-03-30T01:09:28;14.70;81.20
53643;DHT22;39546;45.534;12.048;2023-03-30T01:15:34;14.70;81.40
53643;DHT22;39546;45.534;12.048;2023-03-30T01:47:55;14.70;81.60
53643;DHT22;39546;45.534;12.048;2023-03-30T01:54:06;14.60;81.30
53643;DHT22;39546;45.534;12.048;2023-03-30T02:00:13;14.60;81.60
53643;DHT22;39546;45.534;12.048;2023-03-30T02:06:27;14.70;81.50
53643;DHT22;39546;45.534;12.048;2023-03-30T02:12:31;14.70;81.30
53643;DHT22;39546;45.534;12.048;2023-03-30T02:18:34;14.60;81.00
53643;DHT22;39546;45.534;12.048;2023-03-30T02:24:39;14.60;81.00
53643;DHT22;39546;45.534;12.048;2023-03-30T02:30:43;14.60;80.20
53643;DHT22;39546;45.534;12.048;2023-03-30T02:36:57;14.60;80.20
53643;DHT22;39546;45.534;12.048;2023-03-30T02:43:25;14.50;80.00
53643;DHT22;39546;45.534;12.048;2023-03-30T02:56:09;14.50;80.40
53643;DHT22;39546;45.534;12.048;2023-03-30T03:02:27;14.50;80.60
53643;DHT22;39546;45.534;12.048;2023-03-30T03:08:37;14.40;80.20
53643;DHT22;39546;45.534;12.048;2023-03-30T03:14:40;14.30;80.10
53643;DHT22;39546;45.534;12.048;2023-03-30T03:20:43;14.20;80.20
53643;DHT22;39546;45.534;12.048;2023-03-30T03:26:46;14.20;80.10
53643;DHT22;39546;45.534;12.048;2023-03-30T03:32:49;14.10;79.80
53643;DHT22;39546;45.534;12.048;2023-03-30T03:38:52;14.20;79.60
53643;DHT22;39546;45.534;12.048;2023-03-30T03:44:54;14.20;79.40
53643;DHT22;39546;45.534;12.048;2023-03-30T03:50:57;14.10;79.00
53643;DHT22;39546;45.534;12.048;2023-03-30T03:56:59;14.20;78.90
53643;DHT22;39546;45.534;12.048;2023-03-30T04:03:02;14.30;78.20
53643;DHT22;39546;45.534;12.048;2023-03-30T04:09:05;14.40;78.20
53643;DHT22;39546;45.534;12.048;2023-03-30T04:15:09;14.50;78.20
53643;DHT22;39546;45.534;12.048;2023-03-30T04:21:12;14.40;78.10
53643;DHT22;39546;45.534;12.048;2023-03-30T04:27:15;14.50;78.20
53643;DHT22;39546;45.534;12.048;2023-03-30T04:33:18;14.40;78.20
53643;DHT22;39546;45.534;12.048;2023-03-30T04:39:20;14.30;78.00
53643;DHT22;39546;45.534;12.048;2023-03-30T04:45:23;14.30;77.90
53643;DHT22;39546;45.534;12.048;2023-03-30T04:51:25;14.30;78.00
53643;DHT22;39546;45.534;12.048;2023-03-30T04:57:30;14.30;78.00
53643;DHT22;39546;45.534;12.048;2023-03-30T05:03:33;14.30;78.00
53643;DHT22;39546;45.534;12.048;2023-03-30T05:09:37;14.20;78.40
53643;DHT22;39546;45.534;12.048;2023-03-30T05:15:40;14.30;78.30
53643;DHT22;39546;45.534;12.048;2023-03-30T05:21:43;14.30;78.30
53643;DHT22;39546;45.534;12.048;2023-03-30T05:27:46;14.60;78.80
53643;DHT22;39546;45.534;12.048;2023-03-30T05:33:48;14.70;78.50
53643;DHT22;39546;45.534;12.048;2023-03-30T05:39:53;14.60;78.50
53643;DHT22;39546;45.534;12.048;2023-03-30T05:45:56;14.70;78.30
53643;DHT22;39546;45.534;12.048;2023-03-30T05:51:58;14.70;78.40
53643;DHT22;39546;45.534;12.048;2023-03-30T05:58:02;14.70;78.30
53643;DHT22;39546;45.534;12.048;2023-03-30T06:04:05;14.90;78.30
53643;DHT22;39546;45.534;12.048;2023-03-30T06:10:10;14.90;78.40
53643;DHT22;39546;45.534;12.048;2023-03-30T06:16:14;15.10;78.40
53643;DHT22;39546;45.534;12.048;2023-03-30T06:22:16;15.20;79.40
53643;DHT22;39546;45.534;12.048;2023-03-30T06:28:21;15.30;80.00
53643;DHT22;39546;45.534;12.048;2023-03-30T06:34:23;15.20;80.70
53643;DHT22;39546;45.534;12.048;2023-03-30T06:40:25;15.20;81.20
53643;DHT22;39546;45.534;12.048;2023-03-30T06:46:28;15.30;81.00
53643;DHT22;39546;45.534;12.048;2023-03-30T06:52:34;15.50;81.40
53643;DHT22;39546;45.534;12.048;2023-03-30T06:58:36;15.60;81.80
53643;DHT22;39546;45.534;12.048;2023-03-30T07:04:40;15.50;82.10
53643;DHT22;39546;45.534;12.048;2023-03-30T07:10:46;15.50;82.90
53643;DHT22;39546;45.534;12.048;2023-03-30T07:16:49;15.50;82.90
53643;DHT22;39546;45.534;12.048;2023-03-30T07:22:51;15.50;82.80
53643;DHT22;39546;45.534;12.048;2023-03-30T07:28:55;15.40;82.40
53643;DHT22;39546;45.534;12.048;2023-03-30T07:34:58;15.20;83.10
53643;DHT22;39546;45.534;12.048;2023-03-30T07:41:04;15.40;82.80
53643;DHT22;39546;45.534;12.048;2023-03-30T07:47:07;15.30;82.90
53643;DHT22;39546;45.534;12.048;2023-03-30T07:53:10;15.40;83.40
53643;DHT22;39546;45.534;12.048;2023-03-30T07:59:13;15.30;83.40
53643;DHT22;39546;45.534;12.048;2023-03-30T08:05:16;15.30;83.70
53643;DHT22;39546;45.534;12.048;2023-03-30T08:11:20;15.20;83.90
53643;DHT22;39546;45.534;12.048;2023-03-30T08:17:23;15.30;84.20
53643;DHT22;39546;45.534;12.048;2023-03-30T08:23:25;15.40;84.50
53643;DHT22;39546;45.534;12.048;2023-03-30T08:29:28;15.40;84.30
53643;DHT22;39546;45.534;12.048;2023-03-30T08:35:32;15.50;84.40
53643;DHT22;39546;45.534;12.048;2023-03-30T08:48:19;15.70;84.30
53643;DHT22;39546;45.534;12.048;2023-03-30T08:54:22;15.60;83.60
53643;DHT22;39546;45.534;12.048;2023-03-30T09:07:07;15.60;84.00
53643;DHT22;39546;45.534;12.048;2023-03-30T09:13:13;15.60;83.30
53643;DHT22;39546;45.534;12.048;2023-03-30T09:19:23;15.60;83.90
53643;DHT22;39546;45.534;12.048;2023-03-30T09:25:45;15.70;83.80
53643;DHT22;39546;45.534;12.048;2023-03-30T09:31:59;15.60;83.50
53643;DHT22;39546;45.534;12.048;2023-03-30T09:38:06;15.80;83.80
53643;DHT22;39546;45.534;12.048;2023-03-30T09:44:43;15.80;82.90
53643;DHT22;39546;45.534;12.048;2023-03-30T09:50:47;15.90;83.20
53643;DHT22;39546;45.534;12.048;2023-03-30T09:56:53;16.00;83.50
53643;DHT22;39546;45.534;12.048;2023-03-30T10:03:03;16.10;83.80
53643;DHT22;39546;45.534;12.048;2023-03-30T10:09:10;16.20;83.70
53643;DHT22;39546;45.534;12.048;2023-03-30T10:15:17;16.20;83.50
53643;DHT22;39546;45.534;12.048;2023-03-30T10:21:22;16.20;83.50
53643;DHT22;39546;45.534;12.048;2023-03-30T10:27:42;16.20;83.50
53643;DHT22;39546;45.534;12.048;2023-03-30T10:33:46;16.30;83.50
53643;DHT22;39546;45.534;12.048;2023-03-30T10:39:51;16.30;82.90
53643;DHT22;39546;45.534;12.048;2023-03-30T10:45:56;16.40;83.50
53643;DHT22;39546;45.534;12.048;2023-03-30T10:52:14;16.60;83.80
53643;DHT22;39546;45.534;12.048;2023-03-30T11:05:11;16.90;83.00
53643;DHT22;39546;45.534;12.048;2023-03-30T11:10:55;16.50;83.20
53643;DHT22;39546;45.534;12.048;2023-03-30T11:17:07;16.60;84.70
53643;DHT22;39546;45.534;12.048;2023-03-30T11:23:19;16.90;84.60
53643;DHT22;39546;45.534;12.048;2023-03-30T11:29:45;17.10;84.40
53643;DHT22;39546;45.534;12.048;2023-03-30T11:36:10;17.30;84.00
53643;DHT22;39546;45.534;12.048;2023-03-30T11:42:20;17.30;84.20
53643;DHT22;39546;45.534;12.048;2023-03-30T12:13:34;17.10;83.30
53643;DHT22;39546;45.534;12.048;2023-03-30T12:19:50;17.20;83.40
53643;DHT22;39546;45.534;12.048;2023-03-30T12:26:26;17.20;83.90
53643;DHT22;39546;45.534;12.048;2023-03-30T12:32:30;17.30;84.60
53643;DHT22;39546;45.534;12.048;2023-03-30T12:38:42;17.20;84.60
53643;DHT22;39546;45.534;12.048;2023-03-30T13:03:52;17.30;84.50
53643;DHT22;39546;45.534;12.048;2023-03-30T13:09:56;17.30;84.40
53643;DHT22;39546;45.534;12.048;2023-03-30T13:15:59;17.30;84.00
53643;DHT22;39546;45.534;12.048;2023-03-30T13:53:43;16.90;83.50
53643;DHT22;39546;45.534;12.048;2023-03-30T13:59:56;17.00;83.80
53643;DHT22;39546;45.534;12.048;2023-03-30T14:06:36;17.20;83.70
53643;DHT22;39546;45.534;12.048;2023-03-30T14:12:30;17.30;83.30
53643;DHT22;39546;45.534;12.048;2023-03-30T14:18:34;17.50;83.60
53643;DHT22;39546;45.534;12.048;2023-03-30T14:24:37;17.80;83.00
53643;DHT22;39546;45.534;12.048;2023-03-30T14:30:48;18.00;83.00
53643;DHT22;39546;45.534;12.048;2023-03-30T14:36:51;18.40;82.60
53643;DHT22;39546;45.534;12.048;2023-03-30T14:42:54;18.90;81.10
53643;DHT22;39546;45.534;12.048;2023-03-30T14:48:57;19.10;81.30
53643;DHT22;39546;45.534;12.048;2023-03-30T14:54:59;19.20;80.50
53643;DHT22;39546;45.534;12.048;2023-03-30T15:01:05;19.00;81.10
53643;DHT22;39546;45.534;12.048;2023-03-30T15:07:12;19.00;81.50
53643;DHT22;39546;45.534;12.048;2023-03-30T15:19:31;18.70;82.00
53643;DHT22;39546;45.534;12.048;2023-03-30T15:25:34;18.50;82.30
53643;DHT22;39546;45.534;12.048;2023-03-30T15:31:37;18.30;82.30
53643;DHT22;39546;45.534;12.048;2023-03-30T15:37:59;18.10;82.80
53643;DHT22;39546;45.534;12.048;2023-03-30T15:44:15;18.20;83.00
53643;DHT22;39546;45.534;12.048;2023-03-30T15:54:42;18.10;82.60
53643;DHT22;39546;45.534;12.048;2023-03-30T16:00:47;18.30;82.60
53643;DHT22;39546;45.534;12.048;2023-03-30T16:06:49;18.20;82.60
53643;DHT22;39546;45.534;12.048;2023-03-30T16:12:55;18.00;82.70
53643;DHT22;39546;45.534;12.048;2023-03-30T16:18:58;17.90;83.00
53643;DHT22;39546;45.534;12.048;2023-03-30T16:25:00;17.80;83.10
53643;DHT22;39546;45.534;12.048;2023-03-30T16:31:21;17.80;83.10
53643;DHT22;39546;45.534;12.048;2023-03-30T16:37:24;17.50;82.50
53643;DHT22;39546;45.534;12.048;2023-03-30T16:43:26;17.50;83.40
53643;DHT22;39546;45.534;12.048;2023-03-30T16:49:28;17.60;83.40
53643;DHT22;39546;45.534;12.048;2023-03-30T16:55:31;17.50;83.10
53643;DHT22;39546;45.534;12.048;2023-03-30T17:01:34;17.80;83.30
53643;DHT22;39546;45.534;12.048;2023-03-30T17:07:37;17.90;82.80
53643;DHT22;39546;45.534;12.048;2023-03-30T17:13:39;17.60;83.00
53643;DHT22;39546;45.534;12.048;2023-03-30T17:19:41;17.50;83.10
53643;DHT22;39546;45.534;12.048;2023-03-30T17:25:45;17.40;83.40
53643;DHT22;39546;45.534;12.048;2023-03-30T17:31:47;17.30;83.40
53643;DHT22;39546;45.534;12.048;2023-03-30T17:37:50;17.30;83.60
53643;DHT22;39546;45.534;12.048;2023-03-30T17:43:53;17.60;83.40
53643;DHT22;39546;45.534;12.048;2023-03-30T17:49:55;17.60;83.10
53643;DHT22;39546;45.534;12.048;2023-03-30T17:55:58;17.60;82.90
53643;DHT22;39546;45.534;12.048;2023-03-30T18:02:00;17.70;82.90
53643;DHT22;39546;45.534;12.048;2023-03-30T18:08:02;17.70;83.00
53643;DHT22;39546;45.534;12.048;2023-03-30T18:14:05;17.60;82.90
53643;DHT22;39546;45.534;12.048;2023-03-30T18:26:17;17.60;83.40
53643;DHT22;39546;45.534;12.048;2023-03-30T18:32:20;17.70;83.30
53643;DHT22;39546;45.534;12.048;2023-03-30T18:38:22;17.70;83.40
53643;DHT22;39546;45.534;12.048;2023-03-30T18:44:25;17.60;83.10
53643;DHT22;39546;45.534;12.048;2023-03-30T18:50:35;17.60;82.80
53643;DHT22;39546;45.534;12.048;2023-03-30T18:56:37;17.50;83.10
53643;DHT22;39546;45.534;12.048;2023-03-30T19:02:40;17.50;83.10
53643;DHT22;39546;45.534;12.048;2023-03-30T19:08:42;17.40;82.90
53643;DHT22;39546;45.534;12.048;2023-03-30T19:14:44;17.30;83.10
53643;DHT22;39546;45.534;12.048;2023-03-30T19:20:47;17.30;83.10
53643;DHT22;39546;45.534;12.048;2023-03-30T19:26:51;17.30;83.10
53643;DHT22;39546;45.534;12.048;2023-03-30T19:32:56;17.40;83.40
53643;DHT22;39546;45.534;12.048;2023-03-30T19:38:58;17.40;83.50
53643;DHT22;39546;45.534;12.048;2023-03-30T19:45:01;17.40;83.40
53643;DHT22;39546;45.534;12.048;2023-03-30T19:51:04;17.30;83.50
53643;DHT22;39546;45.534;12.048;2023-03-30T19:57:06;17.30;83.30
53643;DHT22;39546;45.534;12.048;2023-03-30T20:03:10;17.30;83.20
53643;DHT22;39546;45.534;12.048;2023-03-30T20:09:12;17.10;83.00
53643;DHT22;39546;45.534;12.048;2023-03-30T20:15:15;16.70;83.30
53643;DHT22;39546;45.534;12.048;2023-03-30T20:21:23;16.70;83.70
53643;DHT22;39546;45.534;12.048;2023-03-30T20:27:25;16.60;82.80
53643;DHT22;39546;45.534;12.048;2023-03-30T20:33:27;16.50;83.40
53643;DHT22;39546;45.534;12.048;2023-03-30T20:39:29;16.70;83.50
53643;DHT22;39546;45.534;12.048;2023-03-30T20:45:31;16.80;83.20
53643;DHT22;39546;45.534;12.048;2023-03-30T20:51:35;16.80;83.50
53643;DHT22;39546;45.534;12.048;2023-03-30T20:57:38;16.50;83.50
53643;DHT22;39546;45.534;12.048;2023-03-30T21:03:41;16.60;83.50
53643;DHT22;39546;45.534;12.048;2023-03-30T21:09:45;16.40;83.60
53643;DHT22;39546;45.534;12.048;2023-03-30T21:15:55;16.50;83.60
53643;DHT22;39546;45.534;12.048;2023-03-30T21:21:57;16.30;83.60
53643;DHT22;39546;45.534;12.048;2023-03-30T21:28:01;16.30;84.00
53643;DHT22;39546;45.534;12.048;2023-03-30T21:34:03;16.40;84.20
53643;DHT22;39546;45.534;12.048;2023-03-30T21:40:05;16.50;84.20
53643;DHT22;39546;45.534;12.048;2023-03-30T21:46:11;16.40;84.10
53643;DHT22;39546;45.534;12.048;2023-03-30T21:52:13;16.40;84.20
53643;DHT22;39546;45.534;12.048;2023-03-30T21:58:15;16.30;84.40
53643;DHT22;39546;45.534;12.048;2023-03-30T22:04:17;16.30;84.40
53643;DHT22;39546;45.534;12.048;2023-03-30T22:10:19;16.40;84.50
53643;DHT22;39546;45.534;12.048;2023-03-30T22:16:29;16.40;84.30
53643;DHT22;39546;45.534;12.048;2023-03-30T22:22:33;16.40;84.10
53643;DHT22;39546;45.534;12.048;2023-03-30T22:28:46;16.40;84.00
53643;DHT22;39546;45.534;12.048;2023-03-30T22:34:48;16.50;83.70
53643;DHT22;39546;45.534;12.048;2023-03-30T22:40:59;16.20;83.10
53643;DHT22;39546;45.534;12.048;2023-03-30T22:47:02;16.20;83.70
53643;DHT22;39546;45.534;12.048;2023-03-30T22:53:03;16.20;83.60
53643;DHT22;39546;45.534;12.048;2023-03-30T22:59:05;16.30;83.70
53643;DHT22;39546;45.534;12.048;2023-03-30T23:05:08;16.30;83.40
53643;DHT22;39546;45.534;12.048;2023-03-30T23:11:11;16.40;83.40
53643;DHT22;39546;45.534;12.048;2023-03-30T23:17:14;16.40;83.30
53643;DHT22;39546;45.534;12.048;2023-03-30T23:23:16;16.40;83.10
53643;DHT22;39546;45.534;12.048;2023-03-30T23:29:17;16.30;83.30
53643;DHT22;39546;45.534;12.048;2023-03-30T23:35:20;16.20;83.40
53643;DHT22;39546;45.534;12.048;2023-03-30T23:41:22;16.20;83.60
53643;DHT22;39546;45.534;12.048;2023-03-30T23:47:24;16.20;83.50
53643;DHT22;39546;45.534;12.048;2023-03-30T23:53:27;16.10;84.00
53643;DHT22;39546;45.534;12.048;2023-03-30T23:59:29;16.10;84.30
